sensor_id;sensor_type;location;lat;lon;timestamp;pressure;altitude;pressure_sealevel;temperature;humidity
6393;BME280;3229;42.674;23.282;2022-11-15T00:01:06;95207.31;;;9.38;70.95
6393;BME280;3229;42.674;23.282;2022-11-15T00:03:33;95200.94;;;9.33;71.18
6393;BME280;3229;42.674;23.282;2022-11-15T00:06:01;95217.84;;;9.45;71.12
6393;BME280;3229;42.674;23.282;2022-11-15T00:08:29;95219.59;;;9.44;71.13
6393;BME280;3229;42.674;23.282;2022-11-15T00:10:57;95214.63;;;9.43;71.05
6393;BME280;3229;42.674;23.282;2022-11-15T00:13:25;95175.06;;;9.15;71.11
6393;BME280;3229;42.674;23.282;2022-11-15T00:15:52;95216.47;;;9.41;71.02
6393;BME280;3229;42.674;23.282;2022-11-15T00:18:20;95213.09;;;9.40;71.06
6393;BME280;3229;42.674;23.282;2022-11-15T00:20:47;95199.06;;;9.35;70.94
6393;BME280;3229;42.674;23.282;2022-11-15T00:23:14;95190.59;;;9.34;71.05
6393;BME280;3229;42.674;23.282;2022-11-15T00:25:41;95203.13;;;9.37;71.03
6393;BME280;3229;42.674;23.282;2022-11-15T00:28:08;95193.38;;;9.31;71.18
6393;BME280;3229;42.674;23.282;2022-11-15T00:30:36;95192.56;;;9.30;71.06
6393;BME280;3229;42.674;23.282;2022-11-15T00:33:03;95188.28;;;9.31;71.11
6393;BME280;3229;42.674;23.282;2022-11-15T00:35:33;95193.50;;;9.29;71.09
6393;BME280;3229;42.674;23.282;2022-11-15T00:38:00;95197.56;;;9.32;70.86
6393;BME280;3229;42.674;23.282;2022-11-15T00:40:27;95195.13;;;9.30;71.05
6393;BME280;3229;42.674;23.282;2022-11-15T00:42:54;95188.41;;;9.29;71.04
6393;BME280;3229;42.674;23.282;2022-11-15T00:45:22;95185.41;;;9.24;70.96
6393;BME280;3229;42.674;23.282;2022-11-15T00:47:49;95193.59;;;9.28;70.92
6393;BME280;3229;42.674;23.282;2022-11-15T00:50:16;95189.44;;;9.27;70.88
6393;BME280;3229;42.674;23.282;2022-11-15T00:52:45;95192.00;;;9.27;70.83
6393;BME280;3229;42.674;23.282;2022-11-15T00:55:13;95150.59;;;9.01;70.94
6393;BME280;3229;42.674;23.282;2022-11-15T00:57:41;95184.56;;;9.24;70.86
6393;BME280;3229;42.674;23.282;2022-11-15T01:00:09;95179.59;;;9.22;71.13
6393;BME280;3229;42.674;23.282;2022-11-15T01:02:36;95183.88;;;9.22;70.77
6393;BME280;3229;42.674;23.282;2022-11-15T01:05:04;95180.53;;;9.21;70.91
6393;BME280;3229;42.674;23.282;2022-11-15T01:07:31;95182.28;;;9.21;70.86
6393;BME280;3229;42.674;23.282;2022-11-15T01:09:59;95177.16;;;9.21;70.86
6393;BME280;3229;42.674;23.282;2022-11-15T01:12:26;95170.91;;;9.14;70.82
6393;BME280;3229;42.674;23.282;2022-11-15T01:14:53;95180.75;;;9.18;70.91
6393;BME280;3229;42.674;23.282;2022-11-15T01:17:21;95182.50;;;9.18;70.92
6393;BME280;3229;42.674;23.282;2022-11-15T01:19:49;95140.97;;;8.93;70.87
6393;BME280;3229;42.674;23.282;2022-11-15T01:22:16;95158.25;;;9.01;70.89
6393;BME280;3229;42.674;23.282;2022-11-15T01:24:45;95181.81;;;9.16;70.94
6393;BME280;3229;42.674;23.282;2022-11-15T01:27:16;95180.16;;;9.15;70.91
6393;BME280;3229;42.674;23.282;2022-11-15T01:29:43;95179.34;;;9.14;70.93
6393;BME280;3229;42.674;23.282;2022-11-15T01:32:10;95175.19;;;9.13;70.88
6393;BME280;3229;42.674;23.282;2022-11-15T01:34:36;95113.66;;;8.73;70.96
6393;BME280;3229;42.674;23.282;2022-11-15T01:37:05;95172.75;;;9.12;70.92
6393;BME280;3229;42.674;23.282;2022-11-15T01:39:33;95145.97;;;8.95;70.85
6393;BME280;3229;42.674;23.282;2022-11-15T01:42:01;95172.06;;;9.10;71.03
6393;BME280;3229;42.674;23.282;2022-11-15T01:44:39;95154.78;;;9.02;70.98
6393;BME280;3229;42.674;23.282;2022-11-15T01:47:09;95166.16;;;9.09;70.85
6393;BME280;3229;42.674;23.282;2022-11-15T01:49:39;95165.34;;;9.09;70.98
6393;BME280;3229;42.674;23.282;2022-11-15T01:52:18;95169.63;;;9.08;70.90
6393;BME280;3229;42.674;23.282;2022-11-15T01:54:47;95165.34;;;9.09;71.07
6393;BME280;3229;42.674;23.282;2022-11-15T01:57:16;95166.28;;;9.08;70.94
6393;BME280;3229;42.674;23.282;2022-11-15T01:59:45;95151.09;;;8.95;70.96
6393;BME280;3229;42.674;23.282;2022-11-15T02:02:13;95159.53;;;9.07;71.01
6393;BME280;3229;42.674;23.282;2022-11-15T02:04:47;95145.97;;;8.95;70.96
6393;BME280;3229;42.674;23.282;2022-11-15T02:07:16;95161.41;;;9.04;70.90
6393;BME280;3229;42.674;23.282;2022-11-15T02:09:44;95150.28;;;8.94;70.85
6393;BME280;3229;42.674;23.282;2022-11-15T02:12:14;95147.81;;;8.93;70.75
6393;BME280;3229;42.674;23.282;2022-11-15T02:14:45;95164.06;;;9.03;70.86
6393;BME280;3229;42.674;23.282;2022-11-15T02:17:29;95164.97;;;9.02;70.81
6393;BME280;3229;42.674;23.282;2022-11-15T02:20:19;95157.56;;;8.99;71.11
6393;BME280;3229;42.674;23.282;2022-11-15T02:26:09;95149.56;;;8.92;71.04
6393;BME280;3229;42.674;23.282;2022-11-15T02:28:51;95155.94;;;8.98;70.90
6393;BME280;3229;42.674;23.282;2022-11-15T02:31:25;95159.44;;;9.08;71.07
6393;BME280;3229;42.674;23.282;2022-11-15T02:33:59;95158.84;;;9.16;71.21
6393;BME280;3229;42.674;23.282;2022-11-15T02:36:37;95146.63;;;9.19;72.18
6393;BME280;3229;42.674;23.282;2022-11-15T02:39:10;95160.69;;;9.25;72.73
6393;BME280;3229;42.674;23.282;2022-11-15T02:41:46;95154.78;;;9.24;73.60
6393;BME280;3229;42.674;23.282;2022-11-15T02:44:17;95097.75;;;8.92;74.05
6393;BME280;3229;42.674;23.282;2022-11-15T02:46:51;95159.41;;;9.30;74.52
6393;BME280;3229;42.674;23.282;2022-11-15T02:49:46;95124.03;;;9.15;75.26
6393;BME280;3229;42.674;23.282;2022-11-15T02:52:15;95157.56;;;9.33;75.49
6393;BME280;3229;42.674;23.282;2022-11-15T02:54:43;95148.38;;;9.30;75.61
6393;BME280;3229;42.674;23.282;2022-11-15T02:57:26;95145.13;;;9.28;75.71
6393;BME280;3229;42.674;23.282;2022-11-15T03:00:05;95154.16;;;9.32;76.00
6393;BME280;3229;42.674;23.282;2022-11-15T03:03:01;95164.84;;;9.37;75.83
6393;BME280;3229;42.674;23.282;2022-11-15T03:05:37;95142.94;;;9.23;75.93
6393;BME280;3229;42.674;23.282;2022-11-15T03:08:12;95169.69;;;9.40;76.02
6393;BME280;3229;42.674;23.282;2022-11-15T03:10:49;95160.28;;;9.41;75.79
6393;BME280;3229;42.674;23.282;2022-11-15T03:13:25;95161.81;;;9.43;75.68
6393;BME280;3229;42.674;23.282;2022-11-15T03:16:00;95135.41;;;9.33;75.36
6393;BME280;3229;42.674;23.282;2022-11-15T03:18:33;95151.38;;;9.46;75.19
6393;BME280;3229;42.674;23.282;2022-11-15T03:21:05;95143.00;;;9.44;74.91
6393;BME280;3229;42.674;23.282;2022-11-15T03:23:34;95146.94;;;9.48;74.51
6393;BME280;3229;42.674;23.282;2022-11-15T03:26:05;95139.88;;;9.52;74.51
6393;BME280;3229;42.674;23.282;2022-11-15T03:28:36;95137.53;;;9.49;74.34
6393;BME280;3229;42.674;23.282;2022-11-15T03:31:05;95143.66;;;9.58;74.07
6393;BME280;3229;42.674;23.282;2022-11-15T03:33:50;95141.25;;;9.56;74.02
6393;BME280;3229;42.674;23.282;2022-11-15T03:36:22;95133.59;;;9.56;73.90
6393;BME280;3229;42.674;23.282;2022-11-15T03:38:52;95142.41;;;9.63;73.71
6393;BME280;3229;42.674;23.282;2022-11-15T03:41:23;95131.59;;;9.60;73.53
6393;BME280;3229;42.674;23.282;2022-11-15T03:43:56;95133.66;;;9.66;73.38
6393;BME280;3229;42.674;23.282;2022-11-15T03:46:26;95129.25;;;9.68;73.16
6393;BME280;3229;42.674;23.282;2022-11-15T03:49:07;95135.84;;;9.70;73.26
6393;BME280;3229;42.674;23.282;2022-11-15T03:51:41;95134.00;;;9.72;73.16
6393;BME280;3229;42.674;23.282;2022-11-15T03:54:08;95126.22;;;9.74;72.96
6393;BME280;3229;42.674;23.282;2022-11-15T03:56:34;95121.34;;;9.71;72.90
6393;BME280;3229;42.674;23.282;2022-11-15T03:59:01;95103.97;;;9.65;72.84
6393;BME280;3229;42.674;23.282;2022-11-15T04:01:28;95124.09;;;9.79;72.72
6393;BME280;3229;42.674;23.282;2022-11-15T04:03:56;95126.41;;;9.82;72.66
6393;BME280;3229;42.674;23.282;2022-11-15T04:06:23;95122.13;;;9.83;72.57
6393;BME280;3229;42.674;23.282;2022-11-15T04:08:50;95111.47;;;9.77;72.60
6393;BME280;3229;42.674;23.282;2022-11-15T04:11:17;95094.41;;;9.67;72.79
6393;BME280;3229;42.674;23.282;2022-11-15T04:13:44;95116.88;;;9.84;72.43
6393;BME280;3229;42.674;23.282;2022-11-15T04:16:10;95120.94;;;9.87;72.19
6393;BME280;3229;42.674;23.282;2022-11-15T04:18:37;95106.78;;;9.83;72.19
6393;BME280;3229;42.674;23.282;2022-11-15T04:21:06;95114.78;;;9.89;72.30
6393;BME280;3229;42.674;23.282;2022-11-15T04:23:57;95124.06;;;9.90;72.38
6393;BME280;3229;42.674;23.282;2022-11-15T04:26:39;95112.09;;;9.91;72.31
6393;BME280;3229;42.674;23.282;2022-11-15T04:29:06;95091.84;;;9.78;72.52
6393;BME280;3229;42.674;23.282;2022-11-15T04:31:50;95104.94;;;9.85;72.19
6393;BME280;3229;42.674;23.282;2022-11-15T04:34:17;95098.09;;;9.85;72.56
6393;BME280;3229;42.674;23.282;2022-11-15T04:36:47;95110.09;;;9.94;72.63
6393;BME280;3229;42.674;23.282;2022-11-15T04:39:32;95116.03;;;9.95;72.45
6393;BME280;3229;42.674;23.282;2022-11-15T04:41:59;95101.44;;;9.86;72.79
6393;BME280;3229;42.674;23.282;2022-11-15T04:44:26;95115.91;;;9.96;72.62
6393;BME280;3229;42.674;23.282;2022-11-15T04:46:54;95104.66;;;9.88;72.54
6393;BME280;3229;42.674;23.282;2022-11-15T04:49:21;95102.38;;;9.85;72.50
6393;BME280;3229;42.674;23.282;2022-11-15T04:51:50;95106.75;;;9.94;72.43
6393;BME280;3229;42.674;23.282;2022-11-15T04:54:16;95116.47;;;10.00;72.54
6393;BME280;3229;42.674;23.282;2022-11-15T04:56:45;95121.44;;;10.01;72.54
6393;BME280;3229;42.674;23.282;2022-11-15T04:59:11;95126.53;;;10.01;72.55
6393;BME280;3229;42.674;23.282;2022-11-15T05:01:38;95112.16;;;10.00;72.52
6393;BME280;3229;42.674;23.282;2022-11-15T05:04:05;95125.75;;;10.01;72.46
6393;BME280;3229;42.674;23.282;2022-11-15T05:06:49;95092.28;;;9.83;72.50
6393;BME280;3229;42.674;23.282;2022-11-15T05:09:18;95068.28;;;9.74;72.43
6393;BME280;3229;42.674;23.282;2022-11-15T05:11:47;95125.50;;;10.04;72.52
6393;BME280;3229;42.674;23.282;2022-11-15T05:14:14;95125.50;;;10.04;72.92
6393;BME280;3229;42.674;23.282;2022-11-15T05:16:41;95126.31;;;10.04;72.59
6393;BME280;3229;42.674;23.282;2022-11-15T05:19:08;95120.25;;;10.05;72.75
6393;BME280;3229;42.674;23.282;2022-11-15T05:21:38;95116.91;;;10.05;72.65
6393;BME280;3229;42.674;23.282;2022-11-15T05:24:24;95121.09;;;10.06;72.59
6393;BME280;3229;42.674;23.282;2022-11-15T05:26:51;95111.78;;;10.05;72.56
6393;BME280;3229;42.674;23.282;2022-11-15T05:29:18;95102.75;;;10.01;72.68
6393;BME280;3229;42.674;23.282;2022-11-15T05:31:44;95118.53;;;10.06;72.83
6393;BME280;3229;42.674;23.282;2022-11-15T05:34:11;95104.81;;;10.07;72.49
6393;BME280;3229;42.674;23.282;2022-11-15T05:36:41;95093.59;;;9.98;72.71
6393;BME280;3229;42.674;23.282;2022-11-15T05:39:11;95062.00;;;9.78;72.71
6393;BME280;3229;42.674;23.282;2022-11-15T05:41:40;95107.09;;;10.10;72.65
6393;BME280;3229;42.674;23.282;2022-11-15T05:44:10;95111.31;;;10.11;72.85
6393;BME280;3229;42.674;23.282;2022-11-15T05:46:38;95117.09;;;10.13;72.87
6393;BME280;3229;42.674;23.282;2022-11-15T05:49:11;95099.56;;;10.09;72.71
6393;BME280;3229;42.674;23.282;2022-11-15T05:51:39;95099.56;;;10.09;72.69
6393;BME280;3229;42.674;23.282;2022-11-15T05:54:06;95102.28;;;10.07;72.71
6393;BME280;3229;42.674;23.282;2022-11-15T05:56:35;95115.66;;;10.20;72.71
6393;BME280;3229;42.674;23.282;2022-11-15T05:59:02;95123.19;;;10.22;72.71
6393;BME280;3229;42.674;23.282;2022-11-15T06:01:29;95118.22;;;10.20;72.63
6393;BME280;3229;42.674;23.282;2022-11-15T06:03:56;95114.25;;;10.27;72.46
6393;BME280;3229;42.674;23.282;2022-11-15T06:06:23;95117.63;;;10.28;72.70
6393;BME280;3229;42.674;23.282;2022-11-15T06:08:50;95132.69;;;10.31;72.84
6393;BME280;3229;42.674;23.282;2022-11-15T06:11:17;95107.31;;;10.18;72.76
6393;BME280;3229;42.674;23.282;2022-11-15T06:13:45;95112.97;;;10.22;72.85
6393;BME280;3229;42.674;23.282;2022-11-15T06:16:12;95119.69;;;10.34;72.80
6393;BME280;3229;42.674;23.282;2022-11-15T06:18:39;95082.13;;;10.14;72.86
6393;BME280;3229;42.674;23.282;2022-11-15T06:21:05;95113.06;;;10.32;72.81
6393;BME280;3229;42.674;23.282;2022-11-15T06:23:34;95124.28;;;10.40;72.74
6393;BME280;3229;42.674;23.282;2022-11-15T06:26:02;95123.94;;;10.45;72.94
6393;BME280;3229;42.674;23.282;2022-11-15T06:28:29;95123.78;;;10.46;72.59
6393;BME280;3229;42.674;23.282;2022-11-15T06:31:02;95116.78;;;10.48;72.62
6393;BME280;3229;42.674;23.282;2022-11-15T06:33:29;95111.69;;;10.48;72.46
6393;BME280;3229;42.674;23.282;2022-11-15T06:36:00;95100.91;;;10.45;72.50
6393;BME280;3229;42.674;23.282;2022-11-15T06:38:27;95118.72;;;10.56;72.64
6393;BME280;3229;42.674;23.282;2022-11-15T06:40:53;95107.81;;;10.54;72.34
6393;BME280;3229;42.674;23.282;2022-11-15T06:43:20;95115.69;;;10.62;72.40
6393;BME280;3229;42.674;23.282;2022-11-15T06:45:47;95119.56;;;10.66;72.53
6393;BME280;3229;42.674;23.282;2022-11-15T06:48:15;95110.84;;;10.69;72.27
6393;BME280;3229;42.674;23.282;2022-11-15T06:50:42;95108.19;;;11.20;100.00
6393;BME280;3229;42.674;23.282;2022-11-15T06:53:09;95102.47;;;11.96;100.00
6393;BME280;3229;42.674;23.282;2022-11-15T06:55:36;95110.44;;;12.78;100.00
6393;BME280;3229;42.674;23.282;2022-11-15T06:58:03;95087.63;;;13.30;100.00
6393;BME280;3229;42.674;23.282;2022-11-15T07:00:30;95116.66;;;14.12;100.00
6393;BME280;3229;42.674;23.282;2022-11-15T07:02:59;95098.72;;;14.64;100.00
6393;BME280;3229;42.674;23.282;2022-11-15T07:05:28;95099.56;;;15.15;97.71
6393;BME280;3229;42.674;23.282;2022-11-15T07:07:58;95105.47;;;15.50;95.51
6393;BME280;3229;42.674;23.282;2022-11-15T07:10:28;95105.97;;;15.53;92.99
6393;BME280;3229;42.674;23.282;2022-11-15T07:12:55;95104.34;;;15.44;90.23
6393;BME280;3229;42.674;23.282;2022-11-15T07:15:25;95106.84;;;15.28;87.47
6393;BME280;3229;42.674;23.282;2022-11-15T07:17:52;95106.16;;;15.10;86.00
6393;BME280;3229;42.674;23.282;2022-11-15T07:20:19;95101.41;;;14.89;84.30
6393;BME280;3229;42.674;23.282;2022-11-15T07:22:47;95105.34;;;14.75;82.62
6393;BME280;3229;42.674;23.282;2022-11-15T07:25:14;95121.50;;;14.59;81.52
6393;BME280;3229;42.674;23.282;2022-11-15T07:27:40;95109.47;;;14.42;80.23
6393;BME280;3229;42.674;23.282;2022-11-15T07:30:08;95119.50;;;14.27;79.29
6393;BME280;3229;42.674;23.282;2022-11-15T07:32:35;95123.41;;;14.13;78.62
6393;BME280;3229;42.674;23.282;2022-11-15T07:35:02;95119.63;;;13.99;77.81
6393;BME280;3229;42.674;23.282;2022-11-15T07:37:29;95118.22;;;13.87;77.30
6393;BME280;3229;42.674;23.282;2022-11-15T07:39:57;95119.09;;;13.78;76.86
6393;BME280;3229;42.674;23.282;2022-11-15T07:42:24;95107.84;;;13.61;76.53
6393;BME280;3229;42.674;23.282;2022-11-15T07:45:08;95112.63;;;13.56;75.99
6393;BME280;3229;42.674;23.282;2022-11-15T07:47:35;95112.53;;;13.48;75.67
6393;BME280;3229;42.674;23.282;2022-11-15T07:50:02;95114.06;;;13.41;75.43
6393;BME280;3229;42.674;23.282;2022-11-15T07:52:29;95112.22;;;13.33;75.20
6393;BME280;3229;42.674;23.282;2022-11-15T07:54:57;95111.03;;;13.27;74.81
6393;BME280;3229;42.674;23.282;2022-11-15T07:57:24;95109.94;;;13.20;74.60
6393;BME280;3229;42.674;23.282;2022-11-15T07:59:51;95102.16;;;13.12;74.45
6393;BME280;3229;42.674;23.282;2022-11-15T08:02:18;95078.19;;;12.94;74.22
6393;BME280;3229;42.674;23.282;2022-11-15T08:04:47;95111.78;;;13.10;74.14
6393;BME280;3229;42.674;23.282;2022-11-15T08:07:14;95113.66;;;13.08;73.78
6393;BME280;3229;42.674;23.282;2022-11-15T08:09:41;95107.88;;;13.06;73.60
6393;BME280;3229;42.674;23.282;2022-11-15T08:12:10;95104.66;;;13.04;73.42
6393;BME280;3229;42.674;23.282;2022-11-15T08:14:36;95097.50;;;12.98;73.23
6393;BME280;3229;42.674;23.282;2022-11-15T08:17:03;95102.47;;;12.99;73.13
6393;BME280;3229;42.674;23.282;2022-11-15T08:19:30;95100.06;;;12.98;72.86
6393;BME280;3229;42.674;23.282;2022-11-15T08:21:57;95105.34;;;12.96;72.89
6393;BME280;3229;42.674;23.282;2022-11-15T08:24:24;95096.03;;;12.95;72.45
6393;BME280;3229;42.674;23.282;2022-11-15T08:26:51;95101.97;;;12.96;72.38
6393;BME280;3229;42.674;23.282;2022-11-15T08:29:19;95100.06;;;12.98;72.07
6393;BME280;3229;42.674;23.282;2022-11-15T08:31:46;95099.25;;;12.97;72.13
6393;BME280;3229;42.674;23.282;2022-11-15T08:34:12;95095.75;;;12.98;71.84
6393;BME280;3229;42.674;23.282;2022-11-15T08:36:39;95095.09;;;12.96;71.74
6393;BME280;3229;42.674;23.282;2022-11-15T08:39:08;95087.50;;;12.95;71.56
6393;BME280;3229;42.674;23.282;2022-11-15T08:41:37;95091.13;;;13.02;71.28
6393;BME280;3229;42.674;23.282;2022-11-15T08:44:04;95086.69;;;13.04;71.24
6393;BME280;3229;42.674;23.282;2022-11-15T08:46:32;95089.91;;;13.06;70.89
6393;BME280;3229;42.674;23.282;2022-11-15T08:48:58;95074.66;;;13.04;70.81
6393;BME280;3229;42.674;23.282;2022-11-15T08:51:25;95089.84;;;13.16;70.71
6393;BME280;3229;42.674;23.282;2022-11-15T08:53:52;95086.84;;;13.20;70.33
6393;BME280;3229;42.674;23.282;2022-11-15T08:56:19;95070.09;;;13.16;70.23
6393;BME280;3229;42.674;23.282;2022-11-15T08:58:46;95077.66;;;13.27;70.13
6393;BME280;3229;42.674;23.282;2022-11-15T09:01:18;95075.44;;;13.33;69.82
6393;BME280;3229;42.674;23.282;2022-11-15T09:03:46;95064.38;;;13.32;69.73
6393;BME280;3229;42.674;23.282;2022-11-15T09:06:14;95070.56;;;13.39;69.68
6393;BME280;3229;42.674;23.282;2022-11-15T09:08:40;95064.16;;;13.43;69.41
6393;BME280;3229;42.674;23.282;2022-11-15T09:11:09;95059.53;;;13.47;69.29
6393;BME280;3229;42.674;23.282;2022-11-15T09:13:36;95057.47;;;13.50;69.15
6393;BME280;3229;42.674;23.282;2022-11-15T09:16:04;95060.41;;;13.55;69.00
6393;BME280;3229;42.674;23.282;2022-11-15T09:18:31;95046.91;;;13.53;68.73
6393;BME280;3229;42.674;23.282;2022-11-15T09:21:00;95048.44;;;13.64;68.66
6393;BME280;3229;42.674;23.282;2022-11-15T09:23:28;95053.97;;;13.69;68.63
6393;BME280;3229;42.674;23.282;2022-11-15T09:25:58;95037.28;;;13.73;68.31
6393;BME280;3229;42.674;23.282;2022-11-15T09:28:26;95036.47;;;13.73;68.27
6393;BME280;3229;42.674;23.282;2022-11-15T09:30:56;95035.44;;;13.84;68.10
6393;BME280;3229;42.674;23.282;2022-11-15T09:33:24;95026.47;;;13.88;67.92
6393;BME280;3229;42.674;23.282;2022-11-15T09:35:51;95030.88;;;13.95;67.77
6393;BME280;3229;42.674;23.282;2022-11-15T09:38:19;95028.66;;;14.00;67.48
6393;BME280;3229;42.674;23.282;2022-11-15T09:40:49;95025.47;;;14.06;67.47
6393;BME280;3229;42.674;23.282;2022-11-15T09:43:29;95023.25;;;14.12;67.23
6393;BME280;3229;42.674;23.282;2022-11-15T09:46:06;95016.72;;;14.17;66.96
6393;BME280;3229;42.674;23.282;2022-11-15T09:48:49;95017.25;;;14.29;66.80
6393;BME280;3229;42.674;23.282;2022-11-15T09:51:24;95003.09;;;14.33;66.59
6393;BME280;3229;42.674;23.282;2022-11-15T09:53:59;95012.72;;;14.49;66.18
6393;BME280;3229;42.674;23.282;2022-11-15T09:56:29;94978.22;;;14.42;66.24
6393;BME280;3229;42.674;23.282;2022-11-15T09:59:05;95001.06;;;14.71;65.86
6393;BME280;3229;42.674;23.282;2022-11-15T10:01:43;94987.72;;;14.75;65.45
6393;BME280;3229;42.674;23.282;2022-11-15T10:04:11;94981.00;;;14.83;65.31
6393;BME280;3229;42.674;23.282;2022-11-15T10:06:42;94989.72;;;14.98;65.01
6393;BME280;3229;42.674;23.282;2022-11-15T10:09:15;94959.16;;;14.95;64.73
6393;BME280;3229;42.674;23.282;2022-11-15T10:11:44;94977.06;;;15.13;64.43
6393;BME280;3229;42.674;23.282;2022-11-15T10:14:14;94978.03;;;15.20;64.27
6393;BME280;3229;42.674;23.282;2022-11-15T10:17:16;94979.47;;;15.22;64.12
6393;BME280;3229;42.674;23.282;2022-11-15T10:19:53;94983.66;;;15.31;63.93
6393;BME280;3229;42.674;23.282;2022-11-15T10:22:26;94975.47;;;15.36;63.78
6393;BME280;3229;42.674;23.282;2022-11-15T10:25:11;94972.41;;;15.41;63.66
6393;BME280;3229;42.674;23.282;2022-11-15T10:27:40;94967.91;;;15.43;63.58
6393;BME280;3229;42.674;23.282;2022-11-15T10:30:12;94953.88;;;15.45;63.30
6393;BME280;3229;42.674;23.282;2022-11-15T10:32:40;94952.75;;;15.48;63.20
6393;BME280;3229;42.674;23.282;2022-11-15T10:35:27;94946.81;;;15.47;63.06
6393;BME280;3229;42.674;23.282;2022-11-15T10:38:05;94937.13;;;15.49;62.96
6393;BME280;3229;42.674;23.282;2022-11-15T10:40:34;94926.00;;;15.49;62.77
6393;BME280;3229;42.674;23.282;2022-11-15T10:43:13;94930.38;;;15.56;62.77
6393;BME280;3229;42.674;23.282;2022-11-15T10:45:40;94930.19;;;15.58;62.50
6393;BME280;3229;42.674;23.282;2022-11-15T10:48:21;94902.69;;;15.42;62.32
6393;BME280;3229;42.674;23.282;2022-11-15T10:50:50;94922.13;;;15.61;62.38
6393;BME280;3229;42.674;23.282;2022-11-15T10:53:23;94884.16;;;15.39;62.55
6393;BME280;3229;42.674;23.282;2022-11-15T10:55:54;94881.41;;;15.40;62.09
6393;BME280;3229;42.674;23.282;2022-11-15T10:58:33;94904.91;;;15.62;62.16
6393;BME280;3229;42.674;23.282;2022-11-15T11:01:16;94903.91;;;15.63;61.95
6393;BME280;3229;42.674;23.282;2022-11-15T11:03:44;94900.41;;;15.64;61.92
6393;BME280;3229;42.674;23.282;2022-11-15T11:06:13;94888.34;;;15.64;61.75
6393;BME280;3229;42.674;23.282;2022-11-15T11:08:40;94874.63;;;15.55;61.79
6393;BME280;3229;42.674;23.282;2022-11-15T11:11:20;94880.88;;;15.61;61.50
6393;BME280;3229;42.674;23.282;2022-11-15T11:13:47;94884.28;;;15.70;61.49
6393;BME280;3229;42.674;23.282;2022-11-15T11:16:21;94885.56;;;15.74;61.42
6393;BME280;3229;42.674;23.282;2022-11-15T11:18:57;94875.91;;;15.76;61.46
6393;BME280;3229;42.674;23.282;2022-11-15T11:21:38;94844.31;;;15.57;61.29
6393;BME280;3229;42.674;23.282;2022-11-15T11:24:14;94868.19;;;15.76;61.28
6393;BME280;3229;42.674;23.282;2022-11-15T11:26:55;94865.09;;;15.80;61.26
6393;BME280;3229;42.674;23.282;2022-11-15T11:29:33;94846.56;;;15.77;60.99
6393;BME280;3229;42.674;23.282;2022-11-15T11:32:17;94851.38;;;15.80;61.16
6393;BME280;3229;42.674;23.282;2022-11-15T11:34:50;94845.28;;;15.81;60.96
6393;BME280;3229;42.674;23.282;2022-11-15T11:37:30;94835.75;;;15.82;61.04
6393;BME280;3229;42.674;23.282;2022-11-15T11:40:13;94829.63;;;15.83;61.03
6393;BME280;3229;42.674;23.282;2022-11-15T11:42:52;94837.38;;;15.83;60.86
6393;BME280;3229;42.674;23.282;2022-11-15T11:45:36;94813.69;;;15.71;60.81
6393;BME280;3229;42.674;23.282;2022-11-15T11:48:12;94829.81;;;15.81;60.94
6393;BME280;3229;42.674;23.282;2022-11-15T11:50:41;94809.03;;;15.74;60.93
6393;BME280;3229;42.674;23.282;2022-11-15T11:53:12;94807.13;;;15.68;60.96
6393;BME280;3229;42.674;23.282;2022-11-15T11:55:44;94767.00;;;15.49;60.84
6393;BME280;3229;42.674;23.282;2022-11-15T11:58:17;94809.19;;;15.73;60.85
6393;BME280;3229;42.674;23.282;2022-11-15T12:00:51;94799.69;;;15.73;61.03
6393;BME280;3229;42.674;23.282;2022-11-15T12:03:25;94777.16;;;15.59;60.85
6393;BME280;3229;42.674;23.282;2022-11-15T12:05:57;94775.38;;;15.60;60.99
6393;BME280;3229;42.674;23.282;2022-11-15T12:08:32;94747.38;;;15.40;60.92
6393;BME280;3229;42.674;23.282;2022-11-15T12:11:09;94789.22;;;15.67;60.92
6393;BME280;3229;42.674;23.282;2022-11-15T12:13:40;94781.16;;;15.62;60.69
6393;BME280;3229;42.674;23.282;2022-11-15T12:16:14;94783.44;;;15.65;60.96
6393;BME280;3229;42.674;23.282;2022-11-15T12:18:47;94765.22;;;15.58;60.99
6393;BME280;3229;42.674;23.282;2022-11-15T12:21:18;94774.91;;;15.64;60.95
6393;BME280;3229;42.674;23.282;2022-11-15T12:23:49;94734.69;;;15.39;60.87
6393;BME280;3229;42.674;23.282;2022-11-15T12:26:21;94677.44;;;15.12;60.92
6393;BME280;3229;42.674;23.282;2022-11-15T12:28:55;94765.53;;;15.63;60.89
6393;BME280;3229;42.674;23.282;2022-11-15T12:31:29;94754.91;;;15.58;60.76
6393;BME280;3229;42.674;23.282;2022-11-15T12:33:58;94760.53;;;15.62;60.89
6393;BME280;3229;42.674;23.282;2022-11-15T12:36:35;94762.31;;;15.61;60.82
6393;BME280;3229;42.674;23.282;2022-11-15T12:39:04;94756.53;;;15.59;60.99
6393;BME280;3229;42.674;23.282;2022-11-15T12:41:32;94747.66;;;15.53;60.94
6393;BME280;3229;42.674;23.282;2022-11-15T12:44:02;94743.50;;;15.52;60.90
6393;BME280;3229;42.674;23.282;2022-11-15T12:49:44;94746.25;;;15.51;61.12
6393;BME280;3229;42.674;23.282;2022-11-15T12:52:11;94729.03;;;15.43;61.12
6393;BME280;3229;42.674;23.282;2022-11-15T12:57:42;94740.13;;;15.44;61.16
6393;BME280;3229;42.674;23.282;2022-11-15T13:00:44;94726.16;;;15.38;61.35
6393;BME280;3229;42.674;23.282;2022-11-15T13:03:27;94734.69;;;15.39;61.46
6393;BME280;3229;42.674;23.282;2022-11-15T13:06:06;94726.28;;;15.37;61.33
6393;BME280;3229;42.674;23.282;2022-11-15T13:08:43;94732.44;;;15.36;61.43
6393;BME280;3229;42.674;23.282;2022-11-15T13:14:46;94716.84;;;15.29;61.55
6393;BME280;3229;42.674;23.282;2022-11-15T13:17:32;94713.59;;;15.27;61.69
6393;BME280;3229;42.674;23.282;2022-11-15T13:22:58;94714.09;;;15.22;61.78
6393;BME280;3229;42.674;23.282;2022-11-15T13:25:51;94708.97;;;15.22;61.92
6393;BME280;3229;42.674;23.282;2022-11-15T13:28:27;94710.09;;;15.20;61.99
6393;BME280;3229;42.674;23.282;2022-11-15T13:30:57;94695.28;;;15.14;61.95
6393;BME280;3229;42.674;23.282;2022-11-15T13:33:30;94693.22;;;15.09;62.09
6393;BME280;3229;42.674;23.282;2022-11-15T13:36:00;94711.06;;;15.11;62.00
6393;BME280;3229;42.674;23.282;2022-11-15T13:38:29;94701.44;;;15.04;62.27
6393;BME280;3229;42.674;23.282;2022-11-15T13:40:57;94701.63;;;15.03;62.32
6393;BME280;3229;42.674;23.282;2022-11-15T13:43:31;94679.28;;;14.87;62.54
6393;BME280;3229;42.674;23.282;2022-11-15T13:46:11;94704.03;;;14.96;62.40
6393;BME280;3229;42.674;23.282;2022-11-15T13:48:42;94693.44;;;14.91;62.51
6393;BME280;3229;42.674;23.282;2022-11-15T13:51:16;94679.59;;;14.76;62.59